createdAt,value
2019-05-29T00:02:24.264Z,94945.63
2019-05-29T00:04:50.385Z,94948.28
2019-05-29T00:07:16.490Z,94953.13
2019-05-29T00:09:42.811Z,94953.42
2019-05-29T00:12:11.894Z,94959.53
2019-05-29T00:14:36.807Z,94964.22
2019-05-29T00:17:02.928Z,94962.63
2019-05-29T00:19:28.817Z,94964.78
2019-05-29T00:21:54.854Z,94956.06
2019-05-29T00:24:21.133Z,94951.02
2019-05-29T00:26:47.192Z,94953.20
2019-05-29T00:29:13.817Z,94957.22
2019-05-29T00:31:39.916Z,94969.58
2019-05-29T00:34:06.981Z,94966.03
2019-05-29T00:36:32.930Z,94964.71
2019-05-29T00:38:58.835Z,94967.63
2019-05-29T00:41:24.945Z,94966.09
2019-05-29T00:43:51.082Z,94973.52
2019-05-29T00:46:17.627Z,94969.28
2019-05-29T00:48:43.595Z,94975.73
2019-05-29T00:51:09.639Z,94970.42
2019-05-29T00:53:35.642Z,94977.04
2019-05-29T00:56:01.764Z,94969.91
2019-05-29T00:58:27.882Z,94973.16
2019-05-29T01:00:53.884Z,94965.45
2019-05-29T01:03:19.858Z,94963.89
2019-05-29T01:05:45.902Z,94969.02
2019-05-29T01:08:12.578Z,94967.50
2019-05-29T01:10:38.823Z,94967.84
2019-05-29T01:13:04.835Z,94970.00
2019-05-29T01:15:30.937Z,94974.29
2019-05-29T01:17:56.850Z,94983.36
2019-05-29T01:20:22.837Z,94979.43
2019-05-29T01:22:48.862Z,94987.74
2019-05-29T01:25:15.069Z,94989.07
2019-05-29T01:27:41.197Z,94977.93
2019-05-29T01:30:07.610Z,94982.84
2019-05-29T01:32:33.506Z,94989.24
2019-05-29T01:34:59.643Z,94997.27
2019-05-29T01:37:26.465Z,94996.02
2019-05-29T01:39:52.624Z,94998.45
2019-05-29T01:42:19.455Z,95001.67
2019-05-29T01:44:45.586Z,95006.22
2019-05-29T01:47:11.480Z,95003.30
2019-05-29T01:49:37.522Z,95007.82
2019-05-29T01:52:03.624Z,95003.31
2019-05-29T01:54:29.758Z,94999.08
2019-05-29T01:56:55.796Z,95000.14
2019-05-29T01:59:21.919Z,95000.14
2019-05-29T02:01:48.016Z,95002.48
2019-05-29T02:04:14.016Z,95008.31
2019-05-29T02:06:40.045Z,95008.83
2019-05-29T02:09:06.145Z,95008.05
2019-05-29T02:11:32.436Z,95006.22
2019-05-29T02:13:58.486Z,95010.77
2019-05-29T02:16:24.948Z,95007.06
2019-05-29T02:18:51.075Z,95011.88
2019-05-29T02:21:17.995Z,95013.44
2019-05-29T02:23:44.286Z,95020.08
2019-05-29T02:26:10.413Z,95017.44
2019-05-29T02:28:36.319Z,95015.86
2019-05-29T02:31:02.471Z,95023.05
2019-05-29T02:33:28.479Z,95034.70
2019-05-29T02:35:54.622Z,95045.34
2019-05-29T02:38:21.139Z,95045.34
2019-05-29T02:40:48.672Z,95043.50
2019-05-29T02:43:14.796Z,95045.10
2019-05-29T02:45:53.803Z,95049.66
2019-05-29T02:48:08.814Z,95055.54
2019-05-29T02:50:34.825Z,95054.19
2019-05-29T02:53:00.730Z,95053.08
2019-05-29T02:55:27.045Z,95064.82
2019-05-29T02:57:54.444Z,95057.06
2019-05-29T03:00:25.790Z,95067.69
2019-05-29T03:02:52.166Z,95063.70
2019-05-29T03:05:18.258Z,95074.06
2019-05-29T03:07:44.367Z,95078.87
2019-05-29T03:10:10.667Z,95080.71
2019-05-29T03:12:37.807Z,95083.37
2019-05-29T03:15:05.016Z,95089.25
2019-05-29T03:17:31.960Z,95088.20
2019-05-29T03:19:58.066Z,95091.94
2019-05-29T03:22:24.156Z,95095.92
2019-05-29T03:24:50.168Z,95095.98
2019-05-29T03:27:16.170Z,95093.64
2019-05-29T03:29:42.083Z,95096.05
2019-05-29T03:32:13.664Z,95099.77
2019-05-29T03:34:42.377Z,95103.19
2019-05-29T03:37:04.021Z,95112.25
2019-05-29T03:39:30.451Z,95113.17
2019-05-29T03:41:56.633Z,95120.36
2019-05-29T03:44:22.667Z,95123.47
2019-05-29T03:46:48.568Z,95121.84
2019-05-29T03:49:14.604Z,95125.98
2019-05-29T03:51:40.629Z,95130.48
2019-05-29T03:54:06.634Z,95131.44
2019-05-29T03:56:34.635Z,95135.97
2019-05-29T03:59:00.771Z,95142.67
2019-05-29T04:01:26.874Z,95145.81
2019-05-29T04:03:52.826Z,95142.61
2019-05-29T04:06:18.872Z,95149.89
2019-05-29T04:08:44.968Z,95156.10
2019-05-29T04:11:11.092Z,95154.77
2019-05-29T04:13:38.909Z,95163.86
2019-05-29T04:16:06.016Z,95161.28
2019-05-29T04:18:33.945Z,95166.11
2019-05-29T04:21:01.233Z,95169.42
2019-05-29T04:23:32.109Z,95169.13
2019-05-29T04:26:00.197Z,95166.91
2019-05-29T04:28:27.900Z,95163.37
2019-05-29T04:30:55.089Z,95166.38
2019-05-29T04:33:21.006Z,95162.26
2019-05-29T04:35:47.013Z,95162.60
2019-05-29T04:38:13.048Z,95164.77
2019-05-29T04:40:39.728Z,95168.84
2019-05-29T04:43:05.969Z,95171.15
2019-05-29T04:45:33.327Z,95169.42
2019-05-29T04:47:59.991Z,95175.83
2019-05-29T04:50:26.000Z,95185.22
2019-05-29T04:52:51.916Z,95187.47
2019-05-29T04:55:18.028Z,95188.60
2019-05-29T04:57:43.971Z,95188.45
2019-05-29T05:00:10.376Z,95193.89
2019-05-29T05:02:37.276Z,95189.72
2019-05-29T05:05:04.389Z,95194.09
2019-05-29T05:07:31.156Z,95201.94
2019-05-29T05:09:57.308Z,95211.09
2019-05-29T05:12:23.415Z,95213.58
2019-05-29T05:14:49.758Z,95213.17
2019-05-29T05:17:25.774Z,95208.69
2019-05-29T05:19:43.802Z,95213.29
2019-05-29T05:22:09.918Z,95222.30
2019-05-29T05:24:36.440Z,95220.66
2019-05-29T05:27:02.770Z,95223.34
2019-05-29T05:29:28.771Z,95223.07
2019-05-29T05:31:54.875Z,95223.65
2019-05-29T05:34:20.915Z,95228.25
2019-05-29T05:36:47.087Z,95237.03
2019-05-29T05:39:13.202Z,95230.92
2019-05-29T05:41:39.199Z,95235.76
2019-05-29T05:44:05.317Z,95233.45
2019-05-29T05:46:32.927Z,95232.99
2019-05-29T05:48:59.113Z,95242.64
2019-05-29T05:51:25.128Z,95240.61
2019-05-29T05:53:51.644Z,95242.33
2019-05-29T05:56:17.755Z,95245.91
2019-05-29T05:58:43.761Z,95247.85
2019-05-29T06:01:09.866Z,95242.57
2019-05-29T06:03:36.006Z,95250.31
2019-05-29T06:06:02.092Z,95249.86
2019-05-29T06:08:28.131Z,95255.49
2019-05-29T06:10:54.136Z,95259.55
2019-05-29T06:13:20.179Z,95256.95
2019-05-29T06:15:46.113Z,95261.23
2019-05-29T06:18:21.006Z,95259.72
2019-05-29T06:20:40.968Z,95256.80
2019-05-29T06:23:07.207Z,95259.20
2019-05-29T06:25:34.419Z,95259.25
2019-05-29T06:28:02.834Z,95259.84
2019-05-29T06:30:28.945Z,95267.97
2019-05-29T06:32:54.952Z,95264.82
2019-05-29T06:35:21.100Z,95268.61
2019-05-29T06:37:47.049Z,95267.83
2019-05-29T06:40:16.973Z,95279.91
2019-05-29T06:42:43.955Z,95276.01
2019-05-29T06:45:10.946Z,95288.09
2019-05-29T06:47:38.590Z,95284.41
2019-05-29T06:50:05.700Z,95293.77
2019-05-29T06:52:31.599Z,95293.53
2019-05-29T06:54:57.531Z,95299.45
2019-05-29T06:57:25.982Z,95305.13
2019-05-29T06:59:51.491Z,95305.41
2019-05-29T07:02:17.504Z,95303.02
2019-05-29T07:04:44.655Z,95305.75
2019-05-29T07:07:10.851Z,95307.66
2019-05-29T07:09:36.931Z,95310.09
2019-05-29T07:12:03.175Z,95306.08
2019-05-29T07:14:29.218Z,95305.03
2019-05-29T07:16:56.418Z,95311.73
2019-05-29T07:19:28.165Z,95309.88
2019-05-29T07:21:50.482Z,95311.47
2019-05-29T07:24:16.603Z,95317.08
2019-05-29T07:26:43.428Z,95313.35
2019-05-29T07:29:09.921Z,95320.06
2019-05-29T07:31:36.895Z,95328.11
2019-05-29T07:34:03.037Z,95331.05
2019-05-29T07:36:29.051Z,95332.65
2019-05-29T07:39:02.965Z,95337.98
2019-05-29T07:41:22.904Z,95340.66
2019-05-29T07:43:48.900Z,95347.08
2019-05-29T07:46:15.038Z,95349.76
2019-05-29T07:48:42.628Z,95358.55
2019-05-29T07:51:08.858Z,95357.97
2019-05-29T07:53:36.067Z,95361.69
2019-05-29T07:56:02.201Z,95373.14
2019-05-29T07:58:28.324Z,95366.37
2019-05-29T08:01:11.818Z,95378.63
2019-05-29T08:03:22.352Z,95384.98
2019-05-29T08:05:51.553Z,95387.30
2019-05-29T08:08:16.479Z,95394.67
2019-05-29T08:10:43.431Z,95397.00
2019-05-29T08:13:09.585Z,95403.30
2019-05-29T08:15:49.175Z,95414.80
2019-05-29T08:18:03.612Z,95408.98
2019-05-29T08:20:29.713Z,95419.48
2019-05-29T08:22:55.714Z,95418.93
2019-05-29T08:25:21.868Z,95423.72
2019-05-29T08:27:48.895Z,95428.75
2019-05-29T08:30:15.737Z,95432.69
2019-05-29T08:32:43.650Z,95430.78
2019-05-29T08:35:09.888Z,95437.16
2019-05-29T08:37:35.841Z,95438.70
2019-05-29T08:40:04.142Z,95438.61
2019-05-29T08:42:30.059Z,95447.90
2019-05-29T08:44:56.165Z,95444.45
2019-05-29T08:47:22.308Z,95449.23
2019-05-29T08:49:52.471Z,95452.92
2019-05-29T08:52:16.393Z,95453.95
2019-05-29T08:54:42.397Z,95457.18
2019-05-29T08:57:08.405Z,95465.44
2019-05-29T08:59:34.419Z,95467.55
2019-05-29T09:02:00.535Z,95467.56
2019-05-29T09:04:27.140Z,95465.75
2019-05-29T09:06:53.580Z,95473.47
2019-05-29T09:09:19.703Z,95478.75
2019-05-29T09:11:47.378Z,95480.38
2019-05-29T09:14:13.657Z,95484.20
2019-05-29T09:16:39.761Z,95489.84
2019-05-29T09:19:05.909Z,95493.43
2019-05-29T09:21:32.016Z,95495.83
2019-05-29T09:23:59.022Z,95504.05
2019-05-29T09:26:26.122Z,95503.47
2019-05-29T09:28:52.214Z,95503.41
2019-05-29T09:31:19.021Z,95504.80
2019-05-29T09:33:46.227Z,95507.33
2019-05-29T09:36:12.161Z,95510.64
2019-05-29T09:38:38.178Z,95519.15
2019-05-29T09:41:04.311Z,95514.78
2019-05-29T09:43:30.970Z,95514.00
2019-05-29T09:45:57.023Z,95522.55
2019-05-29T09:48:26.798Z,95515.73
2019-05-29T09:50:51.050Z,95518.97
2019-05-29T09:53:17.158Z,95524.36
2019-05-29T09:55:43.263Z,95518.97
2019-05-29T09:58:09.298Z,95533.84
2019-05-29T10:00:35.305Z,95530.30
2019-05-29T10:03:01.500Z,95538.03
2019-05-29T10:05:27.648Z,95529.73
2019-05-29T10:07:55.111Z,95530.30
2019-05-29T10:10:21.956Z,95528.51
2019-05-29T10:12:48.060Z,95531.24
2019-05-29T10:15:15.679Z,95539.36
2019-05-29T10:17:41.784Z,95542.80
2019-05-29T10:20:09.681Z,95539.44
2019-05-29T10:22:35.835Z,95547.44
2019-05-29T10:25:04.008Z,95553.43
2019-05-29T10:27:30.091Z,95557.77
2019-05-29T10:29:56.130Z,95554.14
2019-05-29T10:32:22.184Z,95558.48
2019-05-29T10:34:48.506Z,95562.41
2019-05-29T10:37:17.949Z,95566.27
2019-05-29T10:39:42.894Z,95571.19
2019-05-29T10:42:08.971Z,95567.44
2019-05-29T10:44:35.049Z,95576.14
2019-05-29T10:47:01.199Z,95572.60
2019-05-29T10:49:27.258Z,95576.23
2019-05-29T10:52:05.702Z,95588.31
2019-05-29T10:54:21.470Z,95590.92
2019-05-29T10:56:48.756Z,95592.23
2019-05-29T10:59:14.919Z,95597.23
2019-05-29T11:01:41.072Z,95593.27
2019-05-29T11:04:07.099Z,95593.81
2019-05-29T11:06:33.319Z,95599.56
2019-05-29T11:08:59.395Z,95596.16
2019-05-29T11:11:25.560Z,95596.14
2019-05-29T11:13:52.835Z,95596.51
2019-05-29T11:16:19.074Z,95604.41
2019-05-29T11:18:45.174Z,95606.72
2019-05-29T11:21:11.330Z,95608.23
2019-05-29T11:23:38.339Z,95608.91
2019-05-29T11:26:04.722Z,95613.80
2019-05-29T11:28:30.787Z,95616.23
2019-05-29T11:30:57.216Z,95619.66
2019-05-29T11:33:23.274Z,95625.95
2019-05-29T11:36:00.947Z,95620.53
2019-05-29T11:38:17.405Z,95639.45
2019-05-29T11:40:43.972Z,95622.44
2019-05-29T11:43:10.146Z,95627.33
2019-05-29T11:45:36.252Z,95626.69
2019-05-29T11:48:05.021Z,95627.09
2019-05-29T11:50:30.464Z,95624.22
2019-05-29T11:52:56.578Z,95640.03
2019-05-29T11:55:22.707Z,95638.08
2019-05-29T11:57:48.703Z,95636.66
2019-05-29T12:00:20.286Z,95639.56
2019-05-29T12:02:45.046Z,95646.88
2019-05-29T12:05:12.857Z,95646.64
2019-05-29T12:07:39.533Z,95651.63
2019-05-29T12:10:07.229Z,95653.67
2019-05-29T12:12:33.530Z,95656.10
2019-05-29T12:15:09.858Z,95660.23
2019-05-29T12:17:27.758Z,95652.00
2019-05-29T12:19:54.204Z,95652.44
2019-05-29T12:22:20.329Z,95655.45
2019-05-29T12:24:46.376Z,95659.95
2019-05-29T12:27:12.486Z,95665.53
2019-05-29T12:29:38.495Z,95673.20
2019-05-29T12:32:09.647Z,95676.38
2019-05-29T12:34:32.617Z,95680.48
2019-05-29T12:36:59.550Z,95694.17
2019-05-29T12:39:25.773Z,95689.25
2019-05-29T12:41:53.215Z,95691.50
2019-05-29T12:44:19.413Z,95695.45
2019-05-29T12:46:45.529Z,95702.28
2019-05-29T12:49:11.639Z,95706.77
2019-05-29T12:51:37.756Z,95713.69
2019-05-29T12:54:05.166Z,95709.08
2019-05-29T12:56:31.365Z,95716.35
2019-05-29T12:58:58.324Z,95711.84
2019-05-29T13:01:24.579Z,95713.60
2019-05-29T13:03:50.716Z,95725.75
2019-05-29T13:06:16.858Z,95718.12
2019-05-29T13:08:42.858Z,95727.55
2019-05-29T13:11:08.984Z,95727.85
2019-05-29T13:13:35.079Z,95732.55
2019-05-29T13:16:01.179Z,95723.73
2019-05-29T13:18:27.315Z,95732.68
2019-05-29T13:20:54.700Z,95723.27
2019-05-29T13:23:20.990Z,95739.69
2019-05-29T13:25:46.986Z,95739.87
2019-05-29T13:28:13.083Z,95747.03
2019-05-29T13:30:39.195Z,95740.87
2019-05-29T13:33:08.460Z,95758.99
2019-05-29T13:35:33.223Z,95745.23
2019-05-29T13:38:01.002Z,95752.25
2019-05-29T13:40:27.229Z,95766.69
2019-05-29T13:42:53.330Z,95762.98
2019-05-29T13:45:19.753Z,95759.50
2019-05-29T13:47:45.851Z,95766.61
2019-05-29T13:50:13.738Z,95777.05
2019-05-29T13:52:39.846Z,95772.47
2019-05-29T13:55:07.691Z,95770.46
2019-05-29T13:57:33.866Z,95762.44
2019-05-29T13:59:59.905Z,95771.79
2019-05-29T14:02:26.099Z,95778.44
2019-05-29T14:04:52.254Z,95776.83
2019-05-29T14:07:18.377Z,95787.23
2019-05-29T14:09:44.483Z,95792.05
2019-05-29T14:12:10.706Z,95796.45
2019-05-29T14:14:36.812Z,95797.33
2019-05-29T14:17:04.458Z,95799.42
2019-05-29T14:19:30.675Z,95791.36
2019-05-29T14:21:56.674Z,95789.53
2019-05-29T14:24:29.238Z,95790.80
2019-05-29T14:26:51.064Z,95792.78
2019-05-29T14:29:17.124Z,95799.97
2019-05-29T14:31:43.256Z,95807.95
2019-05-29T14:34:09.665Z,95808.00
2019-05-29T14:36:35.828Z,95809.41
2019-05-29T14:39:05.646Z,95803.88
2019-05-29T14:41:31.843Z,95809.78
2019-05-29T14:43:57.955Z,95808.36
2019-05-29T14:46:23.853Z,95809.27
2019-05-29T14:48:49.865Z,95808.95
2019-05-29T14:51:15.877Z,95813.93
2019-05-29T14:53:41.884Z,95813.02
2019-05-29T14:56:08.860Z,95811.61
2019-05-29T14:58:34.895Z,95813.03
2019-05-29T15:01:00.822Z,95822.56
2019-05-29T15:03:26.966Z,95821.06
2019-05-29T15:05:52.961Z,95831.23
2019-05-29T15:08:19.076Z,95835.45
2019-05-29T15:10:45.185Z,95831.33
2019-05-29T15:13:13.098Z,95846.22
2019-05-29T15:15:39.315Z,95851.98
2019-05-29T15:18:06.860Z,95849.33
2019-05-29T15:20:33.120Z,95847.13
2019-05-29T15:22:59.164Z,95845.66
2019-05-29T15:25:25.265Z,95852.72
2019-05-29T15:27:51.171Z,95848.51
2019-05-29T15:30:23.128Z,95850.38
2019-05-29T15:32:47.574Z,95851.84
2019-05-29T15:35:19.312Z,95850.52
2019-05-29T15:37:43.316Z,95849.92
2019-05-29T15:40:10.945Z,95853.83
2019-05-29T15:42:37.257Z,95846.22
2019-05-29T15:45:04.957Z,95851.99
2019-05-29T15:47:31.549Z,95847.41
2019-05-29T15:49:57.542Z,95849.02
2019-05-29T15:52:23.624Z,95856.63
2019-05-29T15:54:49.773Z,95860.62
2019-05-29T15:57:15.776Z,95862.70
2019-05-29T15:59:41.684Z,95870.91
2019-05-29T16:02:07.795Z,95863.22
2019-05-29T16:04:33.821Z,95870.45
2019-05-29T16:06:59.843Z,95882.03
2019-05-29T16:09:25.836Z,95876.35
2019-05-29T16:11:51.960Z,95882.20
2019-05-29T16:14:19.228Z,95882.35
2019-05-29T16:16:45.386Z,95877.04
2019-05-29T16:19:12.095Z,95882.27
2019-05-29T16:21:38.249Z,95880.05
2019-05-29T16:24:04.383Z,95881.98
2019-05-29T16:26:30.526Z,95881.38
2019-05-29T16:28:56.536Z,95884.02
2019-05-29T16:31:23.005Z,95881.74
2019-05-29T16:33:49.166Z,95883.58
2019-05-29T16:36:16.524Z,95888.33
2019-05-29T16:38:42.791Z,95884.92
2019-05-29T16:41:08.906Z,95879.89
2019-05-29T16:43:34.813Z,95881.69
2019-05-29T16:46:00.824Z,95876.87
2019-05-29T16:48:26.941Z,95885.71
2019-05-29T16:50:53.058Z,95889.12
2019-05-29T16:53:19.087Z,95891.83
2019-05-29T16:55:53.411Z,95895.81
2019-05-29T16:58:13.132Z,95900.99
2019-05-29T17:00:39.247Z,95906.40
2019-05-29T17:03:05.258Z,95907.87
2019-05-29T17:05:31.400Z,95914.42
2019-05-29T17:07:57.512Z,95922.69
2019-05-29T17:10:34.538Z,95919.30
2019-05-29T17:13:00.534Z,95918.55
2019-05-29T17:15:26.550Z,95913.45
2019-05-29T17:17:52.555Z,95922.38
2019-05-29T17:20:37.006Z,95924.88
2019-05-29T17:23:03.207Z,95928.12
2019-05-29T17:25:29.123Z,95927.65
2019-05-29T17:27:55.041Z,95924.20
2019-05-29T17:30:25.136Z,95929.06
2019-05-29T17:32:51.360Z,95927.13
2019-05-29T17:35:17.482Z,95931.95
2019-05-29T17:37:43.468Z,95937.48
2019-05-29T17:40:09.813Z,95945.30
2019-05-29T17:42:35.967Z,95951.75
2019-05-29T17:45:03.824Z,95953.39
2019-05-29T17:47:29.973Z,95946.18
2019-05-29T17:49:55.876Z,95951.18
2019-05-29T17:52:22.020Z,95957.44
2019-05-29T17:54:48.130Z,95958.20
2019-05-29T17:57:14.140Z,95954.13
2019-05-29T17:59:40.160Z,95963.20
2019-05-29T18:02:06.391Z,95964.72
2019-05-29T18:04:32.570Z,95970.13
2019-05-29T18:06:58.619Z,95968.83
2019-05-29T18:09:27.825Z,95976.70
2019-05-29T18:11:52.646Z,95975.66
2019-05-29T18:14:19.215Z,95971.23
2019-05-29T18:16:45.511Z,95972.59
2019-05-29T18:19:11.417Z,95984.77
2019-05-29T18:21:37.427Z,95974.48
2019-05-29T18:24:05.450Z,95977.30
2019-05-29T18:26:45.932Z,95975.16
2019-05-29T18:28:59.409Z,95977.52
2019-05-29T18:31:26.492Z,95977.08
2019-05-29T18:33:52.657Z,95979.89
2019-05-29T18:36:18.916Z,95982.91
2019-05-29T18:38:45.117Z,95982.30
2019-05-29T18:41:11.068Z,95981.95
2019-05-29T18:43:37.225Z,95984.86
2019-05-29T18:46:03.435Z,95989.00
2019-05-29T18:48:29.623Z,95993.63
2019-05-29T18:50:55.674Z,95992.36
2019-05-29T18:53:22.746Z,95999.37
2019-05-29T18:55:49.034Z,96000.39
2019-05-29T18:58:15.078Z,96003.55
2019-05-29T19:00:41.189Z,96003.33
2019-05-29T19:03:07.352Z,96009.37
2019-05-29T19:05:33.454Z,96015.95
2019-05-29T19:07:59.578Z,96021.20
2019-05-29T19:10:25.639Z,96024.41
2019-05-29T19:12:51.687Z,96030.77
2019-05-29T19:15:18.039Z,96026.05
2019-05-29T19:17:44.144Z,96032.91
2019-05-29T19:20:10.520Z,96041.30
2019-05-29T19:22:36.527Z,96046.03
2019-05-29T19:25:06.376Z,96050.52
2019-05-29T19:27:40.234Z,96054.52
2019-05-29T19:30:00.473Z,96056.45
2019-05-29T19:32:27.253Z,96057.33
2019-05-29T19:34:53.517Z,96063.30
2019-05-29T19:37:19.643Z,96072.27
2019-05-29T19:39:45.747Z,96070.80
2019-05-29T19:42:11.745Z,96071.63
2019-05-29T19:44:37.747Z,96072.14
2019-05-29T19:47:03.863Z,96067.66
2019-05-29T19:49:30.886Z,96065.11
2019-05-29T19:51:56.998Z,96070.95
2019-05-29T19:54:23.100Z,96073.69
2019-05-29T19:56:49.116Z,96075.73
2019-05-29T19:59:15.222Z,96082.48
2019-05-29T20:01:41.130Z,96082.03
2019-05-29T20:04:08.639Z,96083.78
2019-05-29T20:06:35.380Z,96083.90
2019-05-29T20:09:01.365Z,96090.89
2019-05-29T20:11:27.703Z,96086.67
2019-05-29T20:13:53.914Z,96082.38
2019-05-29T20:16:19.922Z,96086.45
2019-05-29T20:18:46.114Z,96087.69
2019-05-29T20:21:12.156Z,96086.67
2019-05-29T20:23:38.817Z,96085.23
2019-05-29T20:26:05.001Z,96088.06
2019-05-29T20:28:32.524Z,96092.80
2019-05-29T20:30:58.531Z,96096.59
2019-05-29T20:33:24.581Z,96091.92
2019-05-29T20:35:50.817Z,96090.89
2019-05-29T20:38:16.861Z,96088.33
2019-05-29T20:40:42.988Z,96095.05
2019-05-29T20:43:09.133Z,96095.58
2019-05-29T20:45:35.522Z,96090.00
2019-05-29T20:48:01.592Z,96091.86
2019-05-29T20:50:27.697Z,96090.58
2019-05-29T20:52:53.794Z,96097.25
2019-05-29T20:55:19.914Z,96093.70
2019-05-29T20:57:45.909Z,96095.99
2019-05-29T21:00:14.647Z,96096.20
2019-05-29T21:02:40.795Z,96106.36
2019-05-29T21:05:07.433Z,96103.28
2019-05-29T21:07:34.592Z,96103.20
2019-05-29T21:10:00.787Z,96113.11
2019-05-29T21:12:26.700Z,96111.99
2019-05-29T21:14:52.838Z,96107.83
2019-05-29T21:17:18.848Z,96110.59
2019-05-29T21:19:46.224Z,96106.79
2019-05-29T21:22:12.231Z,96116.80
2019-05-29T21:24:38.776Z,96110.05
2019-05-29T21:27:04.892Z,96113.34
2019-05-29T21:29:31.007Z,96112.73
2019-05-29T21:31:57.151Z,96115.81
2019-05-29T21:34:23.251Z,96113.08
2019-05-29T21:36:49.263Z,96118.52
2019-05-29T21:39:15.379Z,96116.59
2019-05-29T21:41:42.484Z,96117.57
2019-05-29T21:44:08.744Z,96121.95
2019-05-29T21:46:34.691Z,96127.55
2019-05-29T21:49:00.848Z,96123.06
2019-05-29T21:51:26.967Z,96121.59
2019-05-29T21:53:53.075Z,96120.65
2019-05-29T21:56:19.224Z,96121.97
2019-05-29T21:59:00.303Z,96119.84
2019-05-29T22:01:13.372Z,96119.50
2019-05-29T22:03:40.308Z,96124.31
2019-05-29T22:06:06.473Z,96119.21
2019-05-29T22:08:32.681Z,96128.90
2019-05-29T22:10:59.621Z,96114.83
2019-05-29T22:13:25.812Z,96132.80
2019-05-29T22:15:52.668Z,96139.61
2019-05-29T22:18:18.824Z,96132.19
2019-05-29T22:20:45.047Z,96128.23
2019-05-29T22:23:11.158Z,96127.22
2019-05-29T22:25:37.323Z,96124.14
2019-05-29T22:28:03.670Z,96131.20
2019-05-29T22:30:29.813Z,96127.44
2019-05-29T22:32:55.857Z,96123.03
2019-05-29T22:35:21.991Z,96126.39
2019-05-29T22:37:48.123Z,96115.97
2019-05-29T22:40:14.424Z,96121.36
2019-05-29T22:42:40.576Z,96128.61
2019-05-29T22:45:06.789Z,96120.14
2019-05-29T22:47:32.815Z,96124.73
2019-05-29T22:49:59.861Z,96118.09
2019-05-29T22:52:25.974Z,96114.59
2019-05-29T22:54:52.103Z,96117.57
2019-05-29T22:57:18.120Z,96119.50
2019-05-29T22:59:44.221Z,96109.72
2019-05-29T23:02:10.370Z,96118.18
2019-05-29T23:04:36.268Z,96111.73
2019-05-29T23:07:02.618Z,96107.22
2019-05-29T23:09:28.809Z,96103.23
2019-05-29T23:11:54.843Z,96112.02
2019-05-29T23:14:20.858Z,96106.89
2019-05-29T23:16:46.918Z,96105.28
2019-05-29T23:19:12.817Z,96105.13
2019-05-29T23:21:38.828Z,96104.01
2019-05-29T23:24:04.937Z,96105.66
2019-05-29T23:26:31.042Z,96104.55
2019-05-29T23:28:57.089Z,96107.98
2019-05-29T23:31:23.000Z,96105.36
2019-05-29T23:33:49.067Z,96101.70
2019-05-29T23:36:15.181Z,96105.39
2019-05-29T23:38:41.186Z,96106.31
2019-05-29T23:41:07.330Z,96104.88
2019-05-29T23:43:33.335Z,96110.00
2019-05-29T23:45:59.524Z,96112.92
2019-05-29T23:48:25.649Z,96102.62
2019-05-29T23:50:51.689Z,96109.91
2019-05-29T23:53:17.642Z,96114.50
2019-05-29T23:55:43.847Z,96104.19
2019-05-29T23:58:09.858Z,96106.41
